Time;durP1;ratioP1;P1;durP2;ratioP2;P2;SDS_P1;SDS_P2;PMS_P1;PMS_P2;Temp;Humidity;BMP_temperature;BMP_pressure;BME280_temperature;BME280_humidity;BME280_pressure;Samples;Min_cycle;Max_cycle;Signal;HPM_P1;HPM_P2
2022/01/12 00:02:02;;;;;;;88.93;30.13;;;;;;;3.79;100.00;103671.69;5027235;28;20028;-75
2022/01/12 00:04:27;;;;;;;90.53;31.05;;;;;;;3.81;100.00;103677.94;5023564;28;20053;-75
2022/01/12 00:06:52;;;;;;;97.85;30.30;;;;;;;3.85;100.00;103663.50;5019199;28;20030;-75
2022/01/12 00:09:18;;;;;;;81.05;28.42;;;;;;;3.81;100.00;103661.38;5031412;28;20040;-75
2022/01/12 00:11:43;;;;;;;79.07;27.52;;;;;;;3.85;100.00;103663.50;5020878;28;20026;-75
2022/01/12 00:14:09;;;;;;;84.53;30.02;;;;;;;3.82;100.00;103658.00;5021305;28;20553;-75
2022/01/12 00:16:34;;;;;;;84.90;26.60;;;;;;;3.81;100.00;103645.75;5026634;28;20507;-75
2022/01/12 00:19:00;;;;;;;86.00;27.17;;;;;;;3.84;100.00;103644.34;5015031;28;20041;-76
2022/01/12 00:21:26;;;;;;;88.88;28.85;;;;;;;3.84;100.00;103635.63;5026923;28;20022;-74
2022/01/12 00:23:51;;;;;;;81.28;29.50;;;;;;;3.84;100.00;103628.72;5024880;28;20041;-74
2022/01/12 00:34:39;;;;;;;80.20;24.60;;;;;;;3.85;100.00;103634.84;5022942;28;20095;-76
2022/01/12 00:37:04;;;;;;;73.38;26.45;;;;;;;3.84;100.00;103635.63;5012745;28;20037;-75
2022/01/12 00:39:30;;;;;;;70.05;23.80;;;;;;;3.86;100.00;103644.50;5033005;28;20087;-75
2022/01/12 00:41:55;;;;;;;68.38;23.33;;;;;;;3.81;100.00;103657.13;5034927;28;20033;-75
2022/01/12 00:44:29;;;;;;;71.07;24.75;;;;;;;3.81;100.00;103651.91;5023224;28;20030;-75
2022/01/12 00:46:55;;;;;;;69.43;25.17;;;;;;;3.80;100.00;103660.50;5019655;28;20446;-75
2022/01/12 00:49:21;;;;;;;75.70;24.25;;;;;;;3.78;100.00;103658.53;5016319;28;20030;-75
2022/01/12 00:51:47;;;;;;;74.28;23.42;;;;;;;3.78;100.00;103655.91;5031860;28;20033;-75
2022/01/12 00:54:13;;;;;;;75.80;25.65;;;;;;;3.79;100.00;103652.53;5031488;28;20084;-74
2022/01/12 00:56:39;;;;;;;76.20;25.48;;;;;;;3.79;100.00;103649.94;5028178;28;20092;-75
2022/01/12 00:59:04;;;;;;;72.78;23.42;;;;;;;3.79;100.00;103655.16;5027720;28;20029;-75
2022/01/12 01:01:30;;;;;;;75.70;24.55;;;;;;;3.80;100.00;103651.75;5028564;28;20124;-75
2022/01/12 01:03:55;;;;;;;78.72;24.65;;;;;;;3.82;100.00;103658.00;5029717;28;20478;-75
2022/01/12 01:06:22;;;;;;;82.78;25.65;;;;;;;3.82;100.00;103652.81;5028051;28;20037;-75
2022/01/12 01:08:50;;;;;;;77.57;25.27;;;;;;;3.84;100.00;103644.34;5015952;28;20038;-75
2022/01/12 01:11:16;;;;;;;82.90;24.75;;;;;;;3.83;100.00;103645.13;5015802;28;20105;-75
2022/01/12 01:13:56;;;;;;;74.97;24.10;;;;;;;3.82;100.00;103631.97;5018124;28;20176;-75
2022/01/12 01:16:41;;;;;;;77.55;25.98;;;;;;;3.81;100.00;103633.69;5034259;28;20029;-75
2022/01/12 01:27:22;;;;;;;76.25;25.73;;;;;;;3.85;100.00;103634.84;5031940;28;20035;-75
2022/01/12 01:29:48;;;;;;;82.43;25.75;;;;;;;3.83;100.00;103628.59;5035131;28;20055;-75
2022/01/12 01:32:13;;;;;;;81.85;26.25;;;;;;;3.85;100.00;103632.22;5030506;28;20036;-75
2022/01/12 01:34:44;;;;;;;81.05;26.48;;;;;;;3.86;100.00;103644.50;5023067;28;20025;-75
2022/01/12 01:37:10;;;;;;;76.53;25.55;;;;;;;3.90;100.00;103648.28;5021875;28;20348;-75
2022/01/12 01:39:35;;;;;;;79.70;26.02;;;;;;;3.90;100.00;103658.72;5024103;28;20057;-75
2022/01/12 01:42:07;;;;;;;78.78;27.27;;;;;;;3.92;100.00;103663.28;5032667;28;20041;-75
2022/01/12 01:53:17;;;;;;;77.68;25.17;;;;;;;3.94;100.00;103673.84;5015852;28;20079;-75
2022/01/12 01:55:32;;;;;;;76.68;25.92;;;;;;;3.94;100.00;103711.22;5032959;28;20049;-75
2022/01/12 01:57:58;;;;;;;85.28;25.75;;;;;;;3.97;100.00;103737.53;5015430;28;20038;-75
2022/01/12 02:00:26;;;;;;;81.85;25.85;;;;;;;4.00;100.00;103743.03;5031106;28;20057;-75
2022/01/12 02:02:55;;;;;;;82.03;25.88;;;;;;;4.01;100.00;103750.06;5033042;28;20029;-76
2022/01/12 02:05:20;;;;;;;78.32;25.73;;;;;;;4.04;100.00;103750.34;5032634;28;20389;-75
2022/01/12 02:07:46;;;;;;;79.90;26.02;;;;;;;4.07;100.00;103748.78;5023116;28;20088;-75
2022/01/12 02:10:11;;;;;;;79.25;25.35;;;;;;;4.05;100.00;103754.78;5025913;28;20040;-76
2022/01/12 02:12:37;;;;;;;80.53;25.42;;;;;;;4.04;100.00;103758.19;5029340;28;20043;-76
2022/01/12 02:15:11;;;;;;;77.90;25.00;;;;;;;4.07;100.00;103761.81;5015289;28;20327;-75
2022/01/12 02:17:41;;;;;;;80.65;25.40;;;;;;;4.07;100.00;103759.22;5025191;28;20446;-74
2022/01/12 02:36:58;;;;;;;99.38;26.98;;;;;;;4.10;100.00;103780.38;5025197;28;20065;-74
2022/01/12 02:39:52;;;;;;;85.03;26.13;;;;;;;4.10;100.00;103780.38;5019788;28;20135;-75
2022/01/12 02:42:19;;;;;;;101.75;28.27;;;;;;;4.10;100.00;103776.06;5027933;28;20034;-75
2022/01/12 02:55:42;;;;;;;92.55;25.73;;;;;;;4.11;100.00;103772.69;5024855;28;20107;-75
2022/01/12 02:58:07;;;;;;;107.80;28.67;;;;;;;4.10;100.00;103765.63;5021142;28;20045;-75
2022/01/12 03:03:21;;;;;;;101.65;28.85;;;;;;;4.15;100.00;103763.41;5029751;28;20048;-76
2022/01/12 03:05:55;;;;;;;102.10;29.88;;;;;;;4.16;100.00;103763.56;5020769;28;20088;-75
2022/01/12 03:08:23;;;;;;;126.30;29.45;;;;;;;4.15;100.00;103758.22;5031565;28;20033;-75
2022/01/12 03:10:49;;;;;;;113.88;28.17;;;;;;;4.16;100.00;103749.63;5024295;28;20386;-74
2022/01/12 03:13:14;;;;;;;119.13;30.67;;;;;;;4.16;100.00;103744.41;5020933;28;20025;-74
2022/01/12 03:15:41;;;;;;;106.68;27.83;;;;;;;4.18;100.00;103742.88;5028494;28;20044;-74
2022/01/12 03:18:06;;;;;;;115.05;29.58;;;;;;;4.19;100.00;103753.44;5029571;28;20111;-76
2022/01/12 03:20:32;;;;;;;119.95;29.90;;;;;;;4.20;100.00;103764.75;5013377;28;20061;-74
2022/01/12 03:22:57;;;;;;;121.55;31.58;;;;;;;4.19;100.00;103776.88;5021268;28;20075;-75
2022/01/12 03:25:23;;;;;;;119.43;31.10;;;;;;;4.19;100.00;103786.38;5014453;28;20029;-74
2022/01/12 03:27:49;;;;;;;123.53;31.02;;;;;;;4.20;100.00;103789.13;5032409;28;20029;-75
2022/01/12 03:30:15;;;;;;;125.63;31.85;;;;;;;4.19;100.00;103786.38;5028332;28;20022;-74
2022/01/12 03:32:48;;;;;;;130.20;32.17;;;;;;;4.21;100.00;103790.06;5020636;28;20049;-74
2022/01/12 03:35:35;;;;;;;123.72;31.35;;;;;;;4.21;100.00;103795.25;5019307;28;20463;-75
2022/01/12 03:38:20;;;;;;;122.40;30.08;;;;;;;4.22;100.00;103791.88;5030659;28;20589;-74
2022/01/12 03:40:45;;;;;;;122.85;29.88;;;;;;;4.24;100.00;103794.63;5029598;28;20037;-74
2022/01/12 03:43:11;;;;;;;134.80;31.45;;;;;;;4.25;100.00;103801.69;5024359;28;20045;-74
2022/01/12 03:45:36;;;;;;;138.90;33.60;;;;;;;4.25;100.00;103804.28;5031762;28;20025;-74
2022/01/12 03:48:02;;;;;;;131.63;31.38;;;;;;;4.25;100.00;103802.59;5033451;28;20056;-74
2022/01/12 03:50:27;;;;;;;145.10;34.55;;;;;;;4.25;100.00;103801.69;5022202;28;20044;-74
2022/01/12 03:52:52;;;;;;;141.93;31.17;;;;;;;4.25;100.00;103805.19;5021391;28;20108;-74
2022/01/12 03:55:18;;;;;;;138.85;31.52;;;;;;;4.25;100.00;103810.41;5030172;28;20037;-74
2022/01/12 03:57:43;;;;;;;146.85;32.85;;;;;;;4.25;100.00;103813.00;5032702;28;20079;-74
2022/01/12 04:00:09;;;;;;;134.15;33.17;;;;;;;4.26;100.00;103811.31;5030055;28;20037;-74
2022/01/12 04:02:35;;;;;;;141.80;33.13;;;;;;;4.25;100.00;103806.91;5017748;28;20026;-75
2022/01/12 04:05:24;;;;;;;169.45;35.92;;;;;;;4.25;100.00;103805.19;5021465;28;20573;-75
2022/01/12 04:10:33;;;;;;;145.77;33.25;;;;;;;4.24;100.00;103785.09;5023932;28;20528;-74
2022/01/12 04:13:00;;;;;;;172.93;33.85;;;;;;;4.22;100.00;103790.19;5032042;28;20053;-74
2022/01/12 04:15:25;;;;;;;159.98;33.97;;;;;;;4.19;100.00;103789.91;5033742;28;20033;-74
2022/01/12 04:17:51;;;;;;;171.85;35.78;;;;;;;4.18;100.00;103795.91;5022434;28;20080;-75
2022/01/12 04:20:16;;;;;;;180.40;35.95;;;;;;;4.17;100.00;103798.38;5021475;28;20407;-75
2022/01/12 04:25:25;;;;;;;163.93;35.53;;;;;;;4.14;100.00;103793.78;5023565;28;20449;-75
2022/01/12 04:27:52;;;;;;;161.25;34.65;;;;;;;4.12;100.00;103810.06;5020397;28;20029;-75
2022/01/12 04:30:17;;;;;;;170.60;35.08;;;;;;;4.08;100.00;103819.28;5025958;28;20041;-75
2022/01/12 04:32:43;;;;;;;164.98;33.60;;;;;;;4.03;100.00;103820.56;5019047;28;20030;-74
2022/01/12 04:35:10;;;;;;;174.77;36.35;;;;;;;3.98;100.00;103819.25;5019474;28;20532;-74
2022/01/12 04:37:35;;;;;;;148.75;32.47;;;;;;;3.96;100.00;103821.69;5030540;28;20080;-75
2022/01/12 04:40:01;;;;;;;165.82;35.60;;;;;;;3.92;100.00;103809.19;5022833;28;20042;-75
2022/01/12 04:42:27;;;;;;;161.75;34.70;;;;;;;3.89;100.00;103798.44;5030528;28;20029;-75
2022/01/12 04:45:00;;;;;;;164.40;34.13;;;;;;;3.86;100.00;103799.06;5033603;28;20129;-75
2022/01/12 04:47:46;;;;;;;183.65;35.72;;;;;;;3.83;100.00;103803.13;5035415;28;20060;-74
2022/01/12 04:50:11;;;;;;;223.65;34.30;;;;;;;3.77;100.00;103799.94;5024820;28;20029;-75
2022/01/12 04:52:37;;;;;;;209.65;36.17;;;;;;;3.75;100.00;103806.69;5028214;28;20029;-75
2022/01/12 04:55:02;;;;;;;174.77;36.15;;;;;;;3.72;100.00;103799.53;5007527;28;20053;-75
2022/01/12 04:57:27;;;;;;;199.73;35.53;;;;;;;3.71;100.00;103792.47;5021132;28;20484;-75
2022/01/12 05:00:16;;;;;;;206.27;38.53;;;;;;;3.68;100.00;103800.91;5035098;28;20029;-75
2022/01/12 05:09:04;;;;;;;277.50;39.40;;;;;;;3.66;100.00;103809.34;5027596;28;20036;-74
2022/01/12 05:13:44;;;;;;;234.32;36.10;;;;;;;3.66;100.00;103822.38;5017761;28;20099;-74
2022/01/12 05:16:12;;;;;;;322.20;42.03;;;;;;;3.64;100.00;103830.06;5021923;28;20469;-74
2022/01/12 05:18:39;;;;;;;320.88;41.47;;;;;;;3.63;100.00;103825.59;5032302;28;20038;-75
2022/01/12 05:21:05;;;;;;;209.90;34.97;;;;;;;3.63;100.00;103833.41;5019570;28;20160;-75
2022/01/12 05:23:31;;;;;;;162.57;33.30;;;;;;;3.60;100.00;103833.13;5016079;28;20038;-75
2022/01/12 05:25:58;;;;;;;229.77;36.17;;;;;;;3.58;100.00;103825.94;5038521;28;20533;-75
2022/01/12 05:28:25;;;;;;;479.58;39.88;;;;;;;3.55;100.00;103823.97;5026146;28;20037;-75
2022/01/12 05:30:51;;;;;;;400.02;38.75;;;;;;;3.51;100.00;103832.28;5024138;28;20045;-74
2022/01/12 05:33:17;;;;;;;245.40;35.53;;;;;;;3.47;100.00;103827.56;5030774;28;20478;-74
2022/01/12 05:35:43;;;;;;;211.30;33.90;;;;;;;3.43;100.00;103838.44;5016685;28;20037;-75
2022/01/12 05:38:12;;;;;;;133.45;30.98;;;;;;;3.39;100.00;103842.44;5028451;28;20046;-74
2022/01/12 05:40:40;;;;;;;463.45;40.17;;;;;;;3.33;100.00;103842.78;5046485;28;20033;-75
2022/01/12 05:43:06;;;;;;;430.40;37.97;;;;;;;3.29;100.00;103845.88;5019609;28;20037;-75
2022/01/12 05:45:33;;;;;;;644.25;45.55;;;;;;;3.23;100.00;103850.50;5033339;28;20037;-75
2022/01/12 05:50:27;;;;;;;131.82;28.83;;;;;;;3.12;100.00;103841.69;5015568;28;20099;-75
2022/01/12 05:52:53;;;;;;;215.43;31.27;;;;;;;3.08;100.00;103849.03;5025092;28;20429;-75
2022/01/12 05:55:18;;;;;;;364.88;35.25;;;;;;;3.02;100.00;103855.47;5029126;28;20117;-75
2022/01/12 05:57:44;;;;;;;404.67;34.90;;;;;;;2.97;100.00;103859.34;5032646;28;20112;-75
2022/01/12 06:00:12;;;;;;;108.35;28.02;;;;;;;2.93;100.00;103859.81;5030419;28;20037;-75
2022/01/12 06:02:38;;;;;;;110.70;27.70;;;;;;;2.90;100.00;103854.28;5025742;28;20038;-74
2022/01/12 06:05:04;;;;;;;129.45;27.90;;;;;;;2.88;100.00;103853.25;5030173;28;20156;-74
2022/01/12 06:07:29;;;;;;;297.23;31.90;;;;;;;2.84;100.00;103864.13;5017178;28;20046;-75
2022/01/12 06:09:55;;;;;;;304.30;31.35;;;;;;;2.84;100.00;103871.91;5018883;28;20048;-75
2022/01/12 06:12:20;;;;;;;343.73;33.22;;;;;;;2.81;100.00;103882.03;5024686;28;20108;-74
2022/01/12 06:14:46;;;;;;;101.25;27.00;;;;;;;2.82;100.00;103891.63;5027339;28;20439;-74
2022/01/12 06:17:12;;;;;;;247.35;30.48;;;;;;;2.81;100.00;103901.13;5016729;28;20041;-75
2022/01/12 06:19:38;;;;;;;148.65;27.55;;;;;;;2.77;100.00;103898.06;5016408;28;20032;-74
2022/01/12 06:22:04;;;;;;;201.40;28.83;;;;;;;2.73;100.00;103901.13;5020138;28;20156;-74
2022/01/12 06:24:29;;;;;;;177.20;28.33;;;;;;;2.69;100.00;103906.06;5021776;28;20075;-74
2022/01/12 06:26:59;;;;;;;106.03;27.92;;;;;;;2.65;100.00;103909.13;5019736;28;20432;-74
2022/01/12 06:29:41;;;;;;;101.60;25.75;;;;;;;2.61;100.00;103900.88;5030520;28;20025;-74
2022/01/12 06:32:07;;;;;;;206.65;28.13;;;;;;;2.55;100.00;103911.59;5022973;28;20029;-73
2022/01/12 06:34:32;;;;;;;158.27;30.52;;;;;;;2.51;100.00;103914.66;5034218;28;20039;-73
2022/01/12 06:36:58;;;;;;;152.98;28.25;;;;;;;2.49;100.00;103911.88;5018645;28;20108;-75
2022/01/12 06:39:25;;;;;;;172.88;28.17;;;;;;;2.51;100.00;103909.47;5023541;28;20045;-75
2022/01/12 06:41:52;;;;;;;216.02;28.80;;;;;;;2.51;100.00;103918.16;5022644;28;20034;-75
2022/01/12 06:44:20;;;;;;;125.22;28.60;;;;;;;2.51;100.00;103920.75;5015249;28;20033;-75
2022/01/12 06:46:47;;;;;;;189.27;29.38;;;;;;;2.50;100.00;103915.41;5018995;28;20029;-75
2022/01/12 06:49:13;;;;;;;238.50;32.03;;;;;;;2.51;100.00;103914.66;5025525;28;20036;-75
2022/01/12 06:51:39;;;;;;;142.20;28.95;;;;;;;2.51;100.00;103920.75;5021912;28;20025;-75
2022/01/12 06:54:05;;;;;;;104.75;29.15;;;;;;;2.55;100.00;103941.84;5040429;28;20038;-75
2022/01/12 06:56:30;;;;;;;123.15;29.95;;;;;;;2.55;100.00;103940.19;5015020;28;20095;-75
2022/01/12 06:58:56;;;;;;;146.32;30.13;;;;;;;2.61;100.00;103948.56;5027018;28;20047;-74
2022/01/12 07:01:21;;;;;;;187.27;30.65;;;;;;;2.64;100.00;103950.56;5022344;28;20064;-74
2022/01/12 07:03:48;;;;;;;116.78;30.65;;;;;;;2.67;100.00;103948.25;5020469;28;20030;-75
2022/01/12 07:06:13;;;;;;;111.40;28.15;;;;;;;2.67;100.00;103954.41;5023417;28;20039;-74
2022/01/12 07:08:39;;;;;;;191.02;32.88;;;;;;;2.69;100.00;103957.16;5026968;28;20025;-74
2022/01/12 07:11:04;;;;;;;122.18;30.13;;;;;;;2.69;100.00;103963.25;5041132;28;20029;-74
2022/01/12 07:13:30;;;;;;;177.95;29.95;;;;;;;2.69;100.00;103963.25;5023031;28;20031;-74
2022/01/12 07:15:55;;;;;;;297.85;32.72;;;;;;;2.70;100.00;103957.28;5025268;28;20029;-74
2022/01/12 07:18:23;;;;;;;108.30;25.85;;;;;;;2.70;100.00;103956.38;5024805;28;20033;-74
2022/01/12 07:20:48;;;;;;;311.92;31.90;;;;;;;2.72;100.00;103961.75;5022243;28;20063;-74
2022/01/12 07:23:14;;;;;;;341.88;32.17;;;;;;;2.68;100.00;103961.41;5023974;28;20053;-74
2022/01/12 07:25:39;;;;;;;142.77;25.35;;;;;;;2.64;100.00;103956.66;5021927;28;20545;-74
2022/01/12 07:28:05;;;;;;;162.07;24.70;;;;;;;2.68;100.00;103961.41;5024362;28;20033;-74
2022/01/12 07:30:30;;;;;;;340.10;27.13;;;;;;;2.65;100.00;103958.50;5021222;28;20138;-74
2022/01/12 07:32:56;;;;;;;170.32;21.90;;;;;;;2.63;100.00;103964.31;5026132;28;20386;-75
2022/01/12 07:35:21;;;;;;;130.00;20.25;;;;;;;2.60;100.00;103964.94;5013050;28;20032;-74
2022/01/12 07:37:48;;;;;;;111.90;19.20;;;;;;;2.52;100.00;103972.00;5017384;28;20070;-74
2022/01/12 07:40:13;;;;;;;177.02;23.13;;;;;;;2.49;100.00;103973.34;5018667;28;20040;-74
2022/01/12 07:42:39;;;;;;;224.07;21.83;;;;;;;2.49;100.00;103978.56;5024844;28;20025;-73
2022/01/12 07:45:05;;;;;;;123.18;20.15;;;;;;;2.45;100.00;103976.41;5013251;28;20022;-71
2022/01/12 07:47:31;;;;;;;91.07;21.48;;;;;;;2.42;100.00;103977.00;5018564;28;20034;-72
2022/01/12 07:49:59;;;;;;;64.72;20.33;;;;;;;2.40;100.00;103975.97;5020808;28;20220;-72
2022/01/12 07:52:25;;;;;;;78.20;19.15;;;;;;;2.37;100.00;103983.44;5027582;28;20454;-72
2022/01/12 07:54:51;;;;;;;82.53;21.00;;;;;;;2.35;100.00;103980.69;5016596;28;20041;-72
2022/01/12 07:57:17;;;;;;;86.22;21.23;;;;;;;2.34;100.00;103989.22;5026000;28;20048;-72
2022/01/12 07:59:43;;;;;;;70.45;19.50;;;;;;;2.34;100.00;103994.41;5032417;28;20029;-71
2022/01/12 08:02:09;;;;;;;99.78;18.15;;;;;;;2.32;100.00;104006.38;5022860;28;20079;-71
2022/01/12 08:04:35;;;;;;;74.90;19.88;;;;;;;2.43;100.00;104022.09;5022854;28;20029;-72
2022/01/12 08:07:02;;;;;;;85.22;19.52;;;;;;;2.44;100.00;104017.09;5025545;28;20033;-72
2022/01/12 08:09:29;;;;;;;196.43;24.10;;;;;;;2.41;100.00;104028.84;5030527;28;20085;-72
2022/01/12 08:11:54;;;;;;;92.03;19.65;;;;;;;2.38;100.00;104025.94;5020386;28;20354;-72
2022/01/12 08:14:20;;;;;;;172.73;21.13;;;;;;;2.32;100.00;104034.00;5020220;28;20022;-72
2022/01/12 08:16:45;;;;;;;125.18;18.75;;;;;;;2.32;100.00;104037.53;5025908;28;20053;-72
2022/01/12 08:19:10;;;;;;;179.05;19.42;;;;;;;2.31;100.00;104033.09;5023631;28;20036;-71
2022/01/12 08:21:36;;;;;;;116.53;17.65;;;;;;;2.28;100.00;104030.19;5021214;28;20026;-72
2022/01/12 08:24:01;;;;;;;126.45;20.27;;;;;;;2.28;100.00;104040.59;5029870;28;20038;-72
2022/01/12 08:26:28;;;;;;;172.02;20.27;;;;;;;2.30;100.00;104031.25;5025120;28;20133;-71
2022/01/12 08:28:53;;;;;;;115.97;19.08;;;;;;;2.30;100.00;104038.16;5022688;28;20022;-71
2022/01/12 08:31:20;;;;;;;100.72;16.15;;;;;;;2.27;100.00;104037.84;5028737;28;20116;-72
2022/01/12 08:33:47;;;;;;;200.05;20.00;;;;;;;2.25;100.00;104040.28;5027351;28;20492;-72
2022/01/12 08:36:13;;;;;;;239.52;21.00;;;;;;;2.29;100.00;104052.84;5029981;28;20021;-73
2022/01/12 08:38:39;;;;;;;304.45;24.38;;;;;;;2.31;100.00;104056.50;5023127;28;20056;-72
2022/01/12 08:41:04;;;;;;;221.07;19.42;;;;;;;2.25;100.00;104066.28;5027838;28;20133;-72
2022/01/12 08:43:30;;;;;;;406.10;23.40;;;;;;;2.26;100.00;104061.97;5021836;28;20033;-73
2022/01/12 08:45:55;;;;;;;273.65;24.48;;;;;;;2.23;100.00;104072.06;5025788;28;20144;-73
2022/01/12 08:48:21;;;;;;;296.83;21.00;;;;;;;2.26;100.00;104075.88;5021473;28;20025;-72
2022/01/12 08:50:47;;;;;;;203.10;20.92;;;;;;;2.29;100.00;104077.88;5026043;28;20048;-72
2022/01/12 08:53:13;;;;;;;156.38;17.23;;;;;;;2.32;100.00;104071.31;5027190;28;20017;-74
2022/01/12 08:55:38;;;;;;;90.25;15.07;;;;;;;2.40;100.00;104071.19;5017731;28;20117;-71
2022/01/12 08:58:04;;;;;;;174.27;19.58;;;;;;;2.43;100.00;104081.88;5020273;28;20036;-71
2022/01/12 09:00:29;;;;;;;57.25;15.35;;;;;;;2.49;100.00;104079.94;5023283;28;20057;-73
2022/01/12 09:02:55;;;;;;;96.03;14.07;;;;;;;2.53;100.00;104085.56;5026082;28;20124;-73
2022/01/12 09:05:20;;;;;;;55.20;14.57;;;;;;;2.57;100.00;104091.13;5030086;28;20457;-73
2022/01/12 09:07:46;;;;;;;41.15;13.00;;;;;;;2.61;100.00;104099.38;5025611;28;20109;-74
2022/01/12 09:10:12;;;;;;;41.58;12.63;;;;;;;2.68;100.00;104100.91;5031326;28;20033;-73
2022/01/12 09:12:37;;;;;;;72.80;13.32;;;;;;;2.69;100.00;104098.47;5019840;28;20383;-72
2022/01/12 09:15:07;;;;;;;81.28;14.07;;;;;;;2.73;100.00;104104.91;5018191;28;20026;-72
2022/01/12 09:17:33;;;;;;;36.95;11.27;;;;;;;2.80;100.00;104102.16;5024000;28;20366;-73
2022/01/12 09:19:58;;;;;;;40.15;11.80;;;;;;;2.89;100.00;104117.78;5023446;28;20083;-72
2022/01/12 09:22:23;;;;;;;45.55;11.38;;;;;;;2.93;100.00;104117.31;5025951;28;20116;-72
2022/01/12 09:24:49;;;;;;;55.42;11.73;;;;;;;2.96;100.00;104120.22;5022446;28;20798;-71
2022/01/12 09:27:16;;;;;;;132.50;14.88;;;;;;;3.03;100.00;104125.25;5022443;28;20112;-71
2022/01/12 09:29:43;;;;;;;55.22;12.85;;;;;;;3.09;100.00;104131.84;5031906;28;20065;-72
2022/01/12 09:32:08;;;;;;;41.15;11.35;;;;;;;3.15;100.00;104138.59;5020796;28;20160;-71
2022/01/12 09:34:34;;;;;;;72.45;13.25;;;;;;;3.20;100.00;104137.38;5024387;28;20444;-73
2022/01/12 09:37:00;;;;;;;61.20;12.05;;;;;;;3.25;100.00;104140.44;5021746;28;20581;-72
2022/01/12 09:39:26;;;;;;;82.75;13.85;;;;;;;3.28;100.00;104135.53;5021732;28;20045;-72
2022/01/12 09:41:51;;;;;;;152.60;15.40;;;;;;;3.31;100.00;104134.91;5018528;28;20025;-73
2022/01/12 09:44:17;;;;;;;42.17;12.45;;;;;;;3.38;100.00;104142.59;5023525;28;20130;-74
2022/01/12 09:46:43;;;;;;;45.22;13.98;;;;;;;3.41;100.00;104141.97;5024535;28;20036;-72
2022/01/12 09:49:09;;;;;;;51.75;13.18;;;;;;;3.45;100.00;104139.81;5022250;28;20372;-72
2022/01/12 09:51:34;;;;;;;155.98;15.05;;;;;;;3.46;100.00;104146.88;5025325;28;20017;-72
2022/01/12 09:54:00;;;;;;;87.65;14.80;;;;;;;3.41;100.00;104155.91;5019353;28;20075;-72
2022/01/12 09:56:30;;;;;;;42.50;12.13;;;;;;;3.47;100.00;104147.78;5023377;28;20443;-72
2022/01/12 09:58:59;;;;;;;60.90;14.15;;;;;;;3.54;100.00;104152.81;5021961;28;20040;-73
2022/01/12 10:01:27;;;;;;;56.05;13.70;;;;;;;3.59;100.00;104148.97;5022686;28;20052;-71
2022/01/12 10:03:52;;;;;;;36.63;12.50;;;;;;;3.64;100.00;104155.56;5024846;28;20034;-71
2022/01/12 10:06:18;;;;;;;118.70;16.20;;;;;;;3.66;100.00;104169.66;5022356;28;20026;-72
2022/01/12 10:08:43;;;;;;;97.07;15.80;;;;;;;3.68;100.00;104160.31;5021832;28;20549;-72
2022/01/12 10:11:15;;;;;;;116.75;16.00;;;;;;;3.68;100.00;104170.72;5024696;28;20377;-72
2022/01/12 10:13:41;;;;;;;101.75;16.17;;;;;;;3.70;100.00;104174.41;5023572;28;20036;-73
2022/01/12 10:16:15;;;;;;;41.35;12.27;;;;;;;3.78;100.00;104176.84;5022050;28;20046;-72
2022/01/12 10:18:59;;;;;;;;;;;;;;;3.77;100.00;104180.22;5023692;28;20045;-73
2022/01/12 10:21:29;;;;;;;38.83;13.23;;;;;;;3.82;100.00;104169.47;5025585;28;19940;-73
2022/01/12 10:23:56;;;;;;;35.20;12.35;;;;;;;3.87;100.00;104151.69;5025461;28;20059;-73
2022/01/12 10:26:39;;;;;;;87.32;15.02;;;;;;;3.83;100.00;104149.56;5020437;28;20034;-73
2022/01/12 10:29:16;;;;;;;118.00;14.85;;;;;;;3.90;100.00;104156.28;5017512;28;20026;-73
2022/01/12 10:31:58;;;;;;;48.38;11.80;;;;;;;3.95;100.00;104142.94;5021127;28;20042;-73
2022/01/12 10:34:41;;;;;;;228.30;12.32;;;;;;;3.98;100.00;104140.63;5019707;28;20075;-73
2022/01/12 10:37:09;;;;;;;44.35;9.02;;;;;;;4.08;100.00;104147.63;5017966;28;20633;-73
2022/01/12 10:39:39;;;;;;;49.45;10.23;;;;;;;4.13;100.00;104142.88;5026149;28;20080;-72
2022/01/12 10:42:07;;;;;;;93.15;13.02;;;;;;;4.13;100.00;104141.19;5027096;28;20056;-73
2022/01/12 10:44:37;;;;;;;61.97;10.10;;;;;;;4.19;100.00;104135.63;5028023;28;20032;-73
2022/01/12 10:47:16;;;;;;;21.73;8.50;;;;;;;4.23;100.00;104132.53;5019253;28;20478;-73
2022/01/12 10:50:00;;;;;;;36.28;9.73;;;;;;;4.27;100.00;104147.72;5017485;28;20033;-72
2022/01/12 10:52:50;;;;;;;62.55;10.88;;;;;;;4.34;100.00;104152.75;5014274;28;20029;-73
2022/01/12 10:55:17;;;;;;;155.48;15.57;;;;;;;4.33;100.00;104169.16;5023311;28;20120;-73
2022/01/12 10:57:44;;;;;;;70.15;12.07;;;;;;;4.34;100.00;104164.84;5021482;28;20112;-72
2022/01/12 11:00:26;;;;;;;168.57;14.90;;;;;;;4.33;100.00;104163.94;5023665;28;20025;-73
2022/01/12 11:02:57;;;;;;;228.52;16.90;;;;;;;4.36;100.00;104163.34;5012772;28;20112;-74
2022/01/12 11:05:25;;;;;;;109.45;15.73;;;;;;;4.44;100.00;104164.97;5023878;28;20087;-72
2022/01/12 11:07:51;;;;;;;248.52;19.00;;;;;;;4.48;100.00;104153.16;5022947;28;20026;-73
2022/01/12 11:10:17;;;;;;;141.15;14.25;;;;;;;4.53;100.00;104157.09;5017074;28;20029;-72
2022/01/12 11:12:42;;;;;;;87.13;13.88;;;;;;;4.59;100.00;104149.88;5022414;28;20067;-74
2022/01/12 11:15:12;;;;;;;130.13;15.88;;;;;;;4.68;100.00;104144.59;5024176;28;20116;-73
2022/01/12 11:17:39;;;;;;;154.80;16.83;;;;;;;4.66;100.00;104128.78;5025696;28;20072;-73
2022/01/12 11:20:15;;;;;;;105.05;15.50;;;;;;;4.73;100.00;104123.41;5018414;28;20025;-73
2022/01/12 11:23:06;;;;;;;62.85;14.82;;;;;;;4.72;100.00;104125.84;5021223;28;20482;-73
2022/01/12 11:25:44;;;;;;;84.25;17.80;;;;;;;4.76;100.00;104138.44;5030410;28;20057;-71
2022/01/12 11:28:14;;;;;;;90.63;15.35;;;;;;;4.81;100.00;104131.91;5027357;28;20115;-73
2022/01/12 11:30:57;;;;;;;82.57;15.65;;;;;;;4.86;100.00;104119.31;5016739;28;20105;-71
2022/01/12 11:33:33;;;;;;;92.60;16.48;;;;;;;4.84;100.00;104121.78;5018590;28;20020;-72
2022/01/12 11:36:12;;;;;;;103.15;17.23;;;;;;;4.84;100.00;104118.25;5023873;28;20038;-71
2022/01/12 11:38:38;;;;;;;92.82;17.02;;;;;;;4.91;100.00;104110.25;5017993;28;20042;-72
2022/01/12 11:41:21;;;;;;;51.10;16.25;;;;;;;4.94;100.00;104118.34;5022022;28;20036;-73
2022/01/12 11:43:52;;;;;;;80.45;16.45;;;;;;;4.96;100.00;104110.66;5016966;28;20088;-73
2022/01/12 11:46:24;;;;;;;91.57;16.00;;;;;;;4.92;100.00;104106.81;5026514;28;20053;-73
2022/01/12 11:48:52;;;;;;;78.28;16.02;;;;;;;4.94;100.00;104115.72;5020065;28;20033;-72
2022/01/12 11:51:41;;;;;;;219.38;19.50;;;;;;;4.93;100.00;104126.03;5024026;28;20534;-73
2022/01/12 11:54:10;;;;;;;129.88;19.50;;;;;;;4.94;100.00;104117.41;5022802;28;20490;-73
2022/01/12 11:56:38;;;;;;;79.72;17.58;;;;;;;5.00;100.00;104118.88;5030726;28;20025;-73
2022/01/12 11:59:13;;;;;;;77.88;15.77;;;;;;;5.01;100.00;104117.22;5025127;28;20029;-73
2022/01/12 12:01:48;;;;;;;75.68;16.65;;;;;;;4.93;100.00;104111.28;5030313;28;20080;-73
2022/01/12 12:04:54;;;;;;;63.20;14.60;;;;;;;4.93;100.00;104111.28;5021839;28;20032;-75
2022/01/12 12:07:19;;;;;;;111.28;15.77;;;;;;;4.97;100.00;104100.34;4995975;28;20545;-74
2022/01/12 12:09:53;;;;;;;91.05;15.90;;;;;;;5.02;100.00;104106.00;5025272;28;20030;-74
2022/01/12 12:12:37;;;;;;;126.75;16.23;;;;;;;5.03;100.00;104103.53;5022661;28;20541;-74
2022/01/12 12:15:05;;;;;;;116.18;15.55;;;;;;;5.09;100.00;104097.00;5029338;28;20551;-74
2022/01/12 12:17:32;;;;;;;58.55;13.38;;;;;;;5.09;100.00;104092.72;5026014;28;20045;-75
2022/01/12 12:19:59;;;;;;;105.07;13.18;;;;;;;5.09;100.00;104094.41;5029559;28;20036;-74
2022/01/12 12:22:30;;;;;;;52.38;13.80;;;;;;;5.00;100.00;104097.09;5027232;28;20065;-74